createdAt,value
2022-11-02T00:00:28.638Z,7.95
2022-11-02T00:02:00.740Z,7.93
2022-11-02T00:03:32.801Z,7.91
2022-11-02T00:05:04.777Z,7.91
2022-11-02T00:06:36.721Z,7.92
2022-11-02T00:08:08.615Z,7.93
2022-11-02T00:09:40.467Z,7.91
2022-11-02T00:11:12.347Z,7.90
2022-11-02T00:12:44.455Z,7.91
2022-11-02T00:14:16.384Z,7.92
2022-11-02T00:15:48.318Z,7.91
2022-11-02T00:17:20.096Z,7.92
2022-11-02T00:18:52.789Z,7.91
2022-11-02T00:20:26.542Z,7.90
2022-11-02T00:21:59.143Z,7.90
2022-11-02T00:23:30.978Z,7.88
2022-11-02T00:25:04.510Z,7.89
2022-11-02T00:26:36.813Z,7.88
2022-11-02T00:28:11.688Z,7.88
2022-11-02T00:29:43.486Z,7.88
2022-11-02T00:31:15.410Z,7.90
2022-11-02T00:32:47.259Z,7.89
2022-11-02T00:34:19.162Z,7.89
2022-11-02T00:35:51.074Z,7.88
2022-11-02T00:37:22.927Z,7.82
2022-11-02T00:38:54.858Z,7.80
2022-11-02T00:40:26.740Z,7.76
2022-11-02T00:41:58.608Z,7.74
2022-11-02T00:43:30.458Z,7.72
2022-11-02T00:46:34.917Z,7.66
2022-11-02T00:48:07.120Z,7.65
2022-11-02T00:49:39.173Z,7.64
2022-11-02T00:51:10.971Z,7.66
2022-11-02T00:52:43.126Z,7.66
2022-11-02T00:54:15.040Z,7.66
2022-11-02T00:55:47.829Z,7.65
2022-11-02T00:57:19.626Z,7.64
2022-11-02T00:58:51.421Z,7.64
2022-11-02T01:00:23.309Z,7.64
2022-11-02T01:01:55.226Z,7.64
2022-11-02T01:03:27.182Z,7.64
2022-11-02T01:04:59.013Z,7.63
2022-11-02T01:06:30.860Z,7.62
2022-11-02T01:08:02.939Z,7.62
2022-11-02T01:09:35.307Z,7.59
2022-11-02T01:11:25.287Z,7.54
2022-11-02T01:12:57.183Z,7.48
2022-11-02T01:14:29.073Z,7.48
2022-11-02T01:16:03.321Z,7.50
2022-11-02T01:17:35.175Z,7.48
2022-11-02T01:19:07.529Z,7.47
2022-11-02T01:20:39.578Z,7.46
2022-11-02T01:22:11.541Z,7.44
2022-11-02T01:23:43.358Z,7.47
2022-11-02T01:25:18.240Z,7.51
2022-11-02T01:26:53.425Z,7.52
2022-11-02T01:28:25.250Z,7.54
2022-11-02T01:29:57.412Z,7.55
2022-11-02T01:31:29.207Z,7.54
2022-11-02T01:33:01.082Z,7.60
2022-11-02T01:34:32.954Z,7.61
2022-11-02T01:36:05.872Z,7.61
2022-11-02T01:37:37.655Z,7.58
2022-11-02T01:39:09.520Z,7.59
2022-11-02T01:40:41.416Z,7.56
2022-11-02T01:42:26.643Z,7.52
2022-11-02T01:43:59.274Z,7.49
2022-11-02T01:45:31.041Z,7.46
2022-11-02T01:47:07.380Z,7.44
2022-11-02T01:48:46.896Z,7.40
2022-11-02T01:50:20.022Z,7.41
2022-11-02T01:51:54.105Z,7.44
2022-11-02T01:53:25.909Z,7.42
2022-11-02T01:54:59.675Z,7.38
2022-11-02T01:56:31.860Z,7.35
2022-11-02T01:58:05.657Z,7.30
2022-11-02T01:59:39.795Z,7.22
2022-11-02T02:01:11.632Z,7.14
2022-11-02T02:02:48.923Z,7.11
2022-11-02T02:04:20.746Z,7.08
2022-11-02T02:05:59.785Z,7.03
2022-11-02T02:07:31.990Z,7.02
2022-11-02T02:09:04.963Z,7.05
2022-11-02T02:10:36.802Z,7.09
2022-11-02T02:12:08.703Z,7.08
2022-11-02T02:13:40.543Z,7.04
2022-11-02T02:15:12.306Z,6.97
2022-11-02T02:16:50.060Z,6.98
2022-11-02T02:18:27.309Z,6.99
2022-11-02T02:20:11.410Z,6.98
2022-11-02T02:21:50.499Z,6.97
2022-11-02T02:25:22.574Z,6.91
2022-11-02T02:27:06.820Z,6.87
2022-11-02T02:28:56.957Z,6.83
2022-11-02T02:30:29.378Z,6.89
2022-11-02T02:32:10.541Z,6.86
2022-11-02T02:33:48.405Z,6.85
2022-11-02T02:35:23.536Z,6.84
2022-11-02T02:37:07.017Z,6.82
2022-11-02T02:38:41.827Z,6.80
2022-11-02T02:40:18.020Z,6.82
2022-11-02T02:41:58.840Z,6.87
2022-11-02T02:43:35.156Z,6.88
2022-11-02T02:45:09.150Z,6.88
2022-11-02T02:46:43.266Z,6.88
2022-11-02T02:48:15.177Z,6.88
2022-11-02T02:49:54.314Z,6.88
2022-11-02T02:51:29.294Z,6.85
2022-11-02T02:53:01.610Z,6.82
2022-11-02T02:54:37.065Z,6.77
2022-11-02T02:56:09.405Z,6.73
2022-11-02T02:57:41.195Z,6.72
2022-11-02T02:59:21.565Z,6.73
2022-11-02T03:00:53.531Z,6.72
2022-11-02T03:02:26.366Z,6.71
2022-11-02T03:03:58.373Z,6.72
2022-11-02T03:05:31.423Z,6.69
2022-11-02T03:07:03.287Z,6.68
2022-11-02T03:08:36.237Z,6.65
2022-11-02T03:10:13.260Z,6.66
2022-11-02T03:11:52.355Z,6.66
2022-11-02T03:13:35.595Z,6.66
2022-11-02T03:15:17.512Z,6.68
2022-11-02T03:16:49.771Z,6.69
2022-11-02T03:18:31.831Z,6.70
2022-11-02T03:20:08.071Z,6.71
2022-11-02T03:21:42.174Z,6.69
2022-11-02T03:23:28.796Z,6.73
2022-11-02T03:25:12.775Z,6.72
2022-11-02T03:26:53.499Z,6.67
2022-11-02T03:28:43.754Z,6.67
2022-11-02T03:30:16.686Z,6.69
2022-11-02T03:31:59.346Z,6.67
2022-11-02T03:33:32.932Z,6.63
2022-11-02T03:35:05.918Z,6.61
2022-11-02T03:36:39.599Z,6.61
2022-11-02T03:38:13.340Z,6.59
2022-11-02T03:39:46.698Z,6.58
2022-11-02T03:41:19.223Z,6.57
2022-11-02T03:42:51.129Z,6.56
2022-11-02T03:44:23.713Z,6.54
2022-11-02T03:45:56.320Z,6.57
2022-11-02T03:47:31.293Z,6.60
2022-11-02T03:49:06.079Z,6.61
2022-11-02T03:50:41.855Z,6.65
2022-11-02T03:52:16.837Z,6.63
2022-11-02T03:53:54.362Z,6.62
2022-11-02T03:55:30.707Z,6.65
2022-11-02T03:58:36.645Z,6.69
2022-11-02T04:00:27.214Z,6.74
2022-11-02T04:01:59.200Z,6.75
2022-11-02T04:03:31.471Z,6.78
2022-11-02T04:05:03.400Z,6.76
2022-11-02T04:06:35.243Z,6.71
2022-11-02T04:08:22.200Z,6.68
2022-11-02T04:09:54.137Z,6.67
2022-11-02T04:11:44.326Z,6.66
2022-11-02T04:13:34.937Z,6.62
2022-11-02T04:15:09.729Z,6.59
2022-11-02T04:16:41.718Z,6.56
2022-11-02T04:18:32.409Z,6.56
2022-11-02T04:20:04.341Z,6.57
2022-11-02T04:21:36.141Z,6.55
2022-11-02T04:23:26.719Z,6.55
2022-11-02T04:25:18.862Z,6.55
2022-11-02T04:26:50.923Z,6.52
2022-11-02T04:28:22.828Z,6.51
2022-11-02T04:29:54.688Z,6.53
2022-11-02T04:31:28.940Z,6.53
2022-11-02T04:33:19.528Z,6.49
2022-11-02T04:34:51.441Z,6.51
2022-11-02T04:36:23.404Z,6.49
2022-11-02T04:38:13.566Z,6.44
2022-11-02T04:39:45.444Z,6.40
2022-11-02T04:41:50.502Z,6.37
2022-11-02T04:43:22.573Z,6.31
2022-11-02T04:44:54.467Z,6.32
2022-11-02T04:46:27.073Z,6.33
2022-11-02T04:48:03.051Z,6.30
2022-11-02T04:49:35.116Z,6.27
2022-11-02T04:51:06.957Z,6.28
2022-11-02T04:52:39.047Z,6.26
2022-11-02T04:54:10.922Z,6.30
2022-11-02T04:55:42.830Z,6.34
2022-11-02T04:57:14.807Z,6.38
2022-11-02T04:58:53.527Z,6.43
2022-11-02T05:00:25.437Z,6.47
2022-11-02T05:03:28.939Z,6.52
2022-11-02T05:05:00.792Z,6.56
2022-11-02T05:06:32.616Z,6.60
2022-11-02T05:08:05.084Z,6.62
2022-11-02T05:09:37.180Z,6.59
2022-11-02T05:11:09.629Z,6.53
2022-11-02T05:12:41.564Z,6.43
2022-11-02T05:14:13.462Z,6.35
2022-11-02T05:15:47.718Z,6.34
2022-11-02T05:17:19.530Z,6.30
2022-11-02T05:18:51.467Z,6.25
2022-11-02T05:20:23.379Z,6.25
2022-11-02T05:21:55.172Z,6.26
2022-11-02T05:23:27.226Z,6.31
2022-11-02T05:24:59.435Z,6.36
2022-11-02T05:26:31.323Z,6.38
2022-11-02T05:28:03.164Z,6.38
2022-11-02T05:29:35.023Z,6.38
2022-11-02T05:32:43.187Z,6.40
2022-11-02T05:34:15.083Z,6.44
2022-11-02T05:35:47.232Z,6.45
2022-11-02T05:37:19.313Z,6.45
2022-11-02T05:38:54.749Z,6.44
2022-11-02T05:40:26.633Z,6.48
2022-11-02T05:41:58.507Z,6.52
2022-11-02T05:43:30.435Z,6.57
2022-11-02T05:45:02.338Z,6.65
2022-11-02T05:46:34.299Z,6.70
2022-11-02T05:48:09.192Z,6.75
2022-11-02T05:49:41.104Z,6.79
2022-11-02T05:51:13.321Z,6.84
2022-11-02T05:52:46.288Z,6.91
2022-11-02T05:54:18.237Z,6.96
2022-11-02T05:55:50.064Z,7.01
2022-11-02T05:57:21.964Z,7.07
2022-11-02T05:58:56.901Z,7.13
2022-11-02T06:02:05.854Z,7.29
2022-11-02T06:03:38.054Z,7.37
2022-11-02T06:05:13.407Z,7.44
2022-11-02T06:06:46.080Z,7.51
2022-11-02T06:08:17.970Z,7.61
2022-11-02T06:09:49.827Z,7.71
2022-11-02T06:11:21.747Z,7.78
2022-11-02T06:12:57.117Z,7.86
2022-11-02T06:14:29.004Z,7.95
2022-11-02T06:16:01.482Z,8.04
2022-11-02T06:17:39.879Z,8.13
2022-11-02T06:19:11.811Z,8.22
2022-11-02T06:20:43.745Z,8.31
2022-11-02T06:22:15.680Z,8.41
2022-11-02T06:23:48.425Z,8.51
2022-11-02T06:25:20.373Z,8.63
2022-11-02T06:26:52.510Z,8.75
2022-11-02T06:28:24.741Z,8.88
2022-11-02T06:31:34.588Z,9.10
2022-11-02T06:33:07.379Z,9.20
2022-11-02T06:34:39.402Z,9.30
2022-11-02T06:36:11.312Z,9.40
2022-11-02T06:37:43.314Z,9.49
2022-11-02T06:39:15.421Z,9.61
2022-11-02T06:40:59.264Z,9.72
2022-11-02T06:42:34.214Z,9.84
2022-11-02T06:44:12.443Z,9.95
2022-11-02T06:45:44.447Z,10.05
2022-11-02T06:47:16.356Z,10.14
2022-11-02T06:48:48.701Z,10.24
2022-11-02T06:50:25.133Z,10.35
2022-11-02T06:51:57.031Z,10.45
2022-11-02T06:53:28.929Z,10.55
2022-11-02T06:55:00.815Z,10.64
2022-11-02T06:56:32.670Z,10.72
2022-11-02T06:58:04.709Z,10.82
2022-11-02T07:01:09.447Z,11.01
2022-11-02T07:02:41.413Z,11.09
2022-11-02T07:04:13.973Z,11.20
2022-11-02T07:05:53.011Z,11.27
2022-11-02T07:07:24.979Z,11.39
2022-11-02T07:08:56.855Z,11.47
2022-11-02T07:10:29.085Z,11.58
2022-11-02T07:12:03.356Z,11.66
2022-11-02T07:13:35.201Z,11.75
2022-11-02T07:15:07.183Z,11.86
2022-11-02T07:16:39.038Z,12.00
2022-11-02T07:18:11.020Z,12.13
2022-11-02T07:19:42.860Z,12.25
2022-11-02T07:21:14.910Z,12.37
2022-11-02T07:22:54.000Z,12.51
2022-11-02T07:24:25.947Z,12.64
2022-11-02T07:25:58.048Z,12.76
2022-11-02T07:27:29.979Z,12.87
2022-11-02T07:29:01.858Z,12.99
2022-11-02T07:30:34.207Z,13.11
2022-11-02T07:32:08.001Z,13.24
2022-11-02T07:33:40.199Z,13.36
2022-11-02T07:36:43.875Z,13.61
2022-11-02T07:38:16.139Z,13.71
2022-11-02T07:39:48.080Z,13.82
2022-11-02T07:41:19.995Z,13.92
2022-11-02T07:42:54.153Z,14.03
2022-11-02T07:44:26.233Z,14.14
2022-11-02T07:45:58.178Z,14.25
2022-11-02T07:47:31.213Z,14.37
2022-11-02T07:49:03.315Z,14.49
2022-11-02T07:50:35.691Z,14.61
2022-11-02T07:52:07.830Z,14.73
2022-11-02T07:53:40.040Z,14.84
2022-11-02T07:55:12.575Z,14.94
2022-11-02T07:56:45.122Z,15.06
2022-11-02T07:58:17.020Z,15.14
2022-11-02T07:59:48.907Z,15.25
2022-11-02T08:01:20.861Z,15.36
2022-11-02T08:02:56.191Z,15.48
2022-11-02T08:04:28.258Z,15.61
2022-11-02T08:06:06.215Z,15.74
2022-11-02T08:07:38.100Z,15.87
2022-11-02T08:09:10.010Z,15.95
2022-11-02T08:10:42.187Z,16.06
2022-11-02T08:12:14.171Z,16.18
2022-11-02T08:13:46.063Z,16.32
2022-11-02T08:15:17.901Z,16.43
2022-11-02T08:16:52.001Z,16.58
2022-11-02T08:18:24.697Z,16.78
2022-11-02T08:19:56.649Z,16.90
2022-11-02T08:21:28.534Z,17.05
2022-11-02T08:23:00.405Z,17.25
2022-11-02T08:24:32.566Z,17.40
2022-11-02T08:26:04.576Z,17.54
2022-11-02T08:27:36.454Z,17.63
2022-11-02T08:29:08.327Z,17.72
2022-11-02T08:30:40.205Z,17.80
2022-11-02T08:32:13.042Z,17.94
2022-11-02T08:33:45.333Z,18.06
2022-11-02T08:35:17.296Z,18.15
2022-11-02T08:36:49.272Z,18.25
2022-11-02T08:38:24.132Z,18.38
2022-11-02T08:39:56.007Z,18.50
2022-11-02T08:41:27.945Z,18.57
2022-11-02T08:43:00.473Z,18.61
2022-11-02T08:44:32.387Z,18.68
2022-11-02T08:46:19.657Z,18.74
2022-11-02T08:47:51.572Z,18.82
2022-11-02T08:50:56.598Z,18.93
2022-11-02T08:52:28.648Z,19.07
2022-11-02T08:54:02.050Z,19.24
2022-11-02T08:55:34.091Z,19.36
2022-11-02T08:57:06.378Z,19.46
2022-11-02T08:58:38.233Z,19.52
2022-11-02T09:00:10.596Z,19.57
2022-11-02T09:01:42.688Z,19.66
2022-11-02T09:03:15.368Z,19.78
2022-11-02T09:04:47.214Z,19.93
2022-11-02T09:06:19.441Z,20.02
2022-11-02T09:07:58.564Z,20.07
2022-11-02T09:09:30.452Z,20.13
2022-11-02T09:11:02.969Z,20.19
2022-11-02T09:12:34.837Z,20.27
2022-11-02T09:14:08.186Z,20.33
2022-11-02T09:15:40.604Z,20.40
2022-11-02T09:17:12.568Z,20.46
2022-11-02T09:18:44.447Z,20.52
2022-11-02T09:20:16.959Z,20.62
2022-11-02T09:21:50.238Z,20.73
2022-11-02T09:23:23.533Z,20.83
2022-11-02T09:24:55.500Z,20.97
2022-11-02T09:26:28.229Z,21.13
2022-11-02T09:28:00.214Z,21.22
2022-11-02T09:29:32.173Z,21.36
2022-11-02T09:31:07.334Z,21.46
2022-11-02T09:32:42.543Z,21.57
2022-11-02T09:34:14.555Z,21.74
2022-11-02T09:35:47.477Z,21.97
2022-11-02T09:37:19.319Z,22.21
2022-11-02T09:38:51.327Z,22.36
2022-11-02T09:40:24.405Z,22.53
2022-11-02T09:42:02.369Z,22.55
2022-11-02T09:43:53.095Z,22.60
2022-11-02T09:45:25.073Z,22.65
2022-11-02T09:47:39.628Z,22.77
2022-11-02T09:48:50.106Z,22.85
2022-11-02T09:50:23.863Z,22.94
2022-11-02T09:51:56.678Z,23.02
2022-11-02T09:55:01.522Z,23.32
2022-11-02T09:56:34.166Z,23.47
2022-11-02T09:58:13.213Z,23.61
2022-11-02T09:59:45.209Z,23.71
2022-11-02T10:01:29.651Z,23.79
2022-11-02T10:03:01.665Z,23.86
2022-11-02T10:04:33.590Z,23.96
2022-11-02T10:06:10.569Z,24.04
2022-11-02T10:07:45.107Z,24.09
2022-11-02T10:09:28.131Z,24.13
2022-11-02T10:11:18.858Z,24.19
2022-11-02T10:13:09.357Z,24.27
2022-11-02T10:14:53.547Z,24.33
2022-11-02T10:16:31.209Z,24.33
2022-11-02T10:18:03.223Z,24.42
2022-11-02T10:19:35.449Z,24.48
2022-11-02T10:21:09.341Z,24.53
2022-11-02T10:22:41.834Z,24.62
2022-11-02T10:24:19.709Z,24.68
2022-11-02T10:25:51.560Z,24.76
2022-11-02T10:27:36.284Z,24.84
2022-11-02T10:29:11.319Z,24.92
2022-11-02T10:30:43.744Z,24.95
2022-11-02T10:32:15.925Z,25.01
2022-11-02T10:33:52.872Z,25.08
2022-11-02T10:36:16.769Z,25.17
2022-11-02T10:37:34.649Z,25.26
2022-11-02T10:39:09.950Z,25.29
2022-11-02T10:40:46.418Z,25.37
2022-11-02T10:42:36.933Z,25.44
2022-11-02T10:44:20.998Z,25.50
2022-11-02T10:46:08.346Z,25.59
2022-11-02T10:47:42.138Z,25.63
2022-11-02T10:49:14.303Z,25.66
2022-11-02T10:50:53.843Z,25.72
2022-11-02T10:52:34.947Z,25.74
2022-11-02T10:54:11.488Z,25.78
2022-11-02T10:55:52.268Z,25.81
2022-11-02T10:57:24.584Z,25.86
2022-11-02T10:59:00.299Z,25.95
2022-11-02T11:00:36.139Z,26.02
2022-11-02T11:02:12.549Z,26.06
2022-11-02T11:03:53.559Z,26.04
2022-11-02T11:05:25.669Z,26.04
2022-11-02T11:06:57.969Z,26.11
2022-11-02T11:08:43.779Z,26.17
2022-11-02T11:10:15.758Z,26.22
2022-11-02T11:11:54.350Z,26.22
2022-11-02T11:19:43.887Z,26.39
2022-11-02T11:21:15.796Z,26.39
2022-11-02T11:22:47.623Z,26.36
2022-11-02T11:24:35.506Z,26.38
2022-11-02T11:26:09.933Z,26.45
2022-11-02T11:29:21.981Z,26.49
2022-11-02T11:31:15.460Z,26.55
2022-11-02T11:32:48.165Z,26.58
2022-11-02T11:34:26.993Z,26.61
2022-11-02T11:35:58.854Z,26.64
2022-11-02T11:37:30.990Z,26.64
2022-11-02T11:39:20.878Z,26.70
2022-11-02T11:40:54.440Z,26.69
2022-11-02T11:42:27.754Z,26.71
2022-11-02T11:43:59.710Z,26.74
2022-11-02T11:45:32.257Z,26.71
2022-11-02T11:47:05.213Z,26.77
2022-11-02T11:48:47.278Z,26.79
2022-11-02T11:50:25.151Z,26.78
2022-11-02T11:51:58.818Z,26.82
2022-11-02T11:53:30.903Z,26.76
2022-11-02T11:55:23.584Z,26.79
2022-11-02T11:57:14.478Z,26.79
2022-11-02T11:58:51.303Z,26.89
2022-11-02T12:00:27.747Z,26.97
2022-11-02T12:02:00.570Z,26.99
2022-11-02T12:03:32.681Z,27.03
2022-11-02T12:05:13.895Z,27.04
2022-11-02T12:06:48.540Z,27.09
2022-11-02T12:08:39.112Z,27.07
2022-11-02T12:10:23.968Z,27.05
2022-11-02T12:12:04.882Z,27.08
2022-11-02T12:13:40.064Z,27.06
2022-11-02T12:15:21.889Z,27.03
2022-11-02T12:17:07.093Z,27.07
2022-11-02T12:21:18.848Z,27.05
2022-11-02T12:22:50.758Z,26.97
2022-11-02T12:24:42.913Z,26.89
2022-11-02T12:27:57.844Z,26.74
2022-11-02T12:29:50.095Z,26.79
2022-11-02T12:31:37.557Z,26.84
2022-11-02T12:33:21.769Z,26.91
2022-11-02T12:35:23.129Z,26.91
2022-11-02T12:37:27.440Z,26.93
2022-11-02T12:38:45.723Z,26.95
2022-11-02T12:41:59.041Z,26.97
2022-11-02T12:43:31.278Z,26.91
2022-11-02T12:45:11.466Z,26.91
2022-11-02T12:47:03.821Z,26.89
2022-11-02T12:48:55.021Z,26.62
2022-11-02T12:50:32.567Z,26.58
2022-11-02T12:52:21.481Z,26.67
2022-11-02T12:53:57.013Z,26.77
2022-11-02T12:57:01.995Z,26.81
2022-11-02T12:58:35.320Z,26.84
2022-11-02T13:00:09.049Z,26.87
2022-11-02T13:01:41.761Z,26.81
2022-11-02T13:03:21.594Z,26.64
2022-11-02T13:04:56.066Z,26.62
2022-11-02T13:06:44.162Z,26.58
2022-11-02T13:08:19.961Z,26.62
2022-11-02T13:10:10.538Z,26.64
2022-11-02T13:11:46.823Z,26.66
2022-11-02T13:13:21.290Z,26.72
2022-11-02T13:14:53.864Z,26.70
2022-11-02T13:16:44.148Z,26.62
2022-11-02T15:00:24.996Z,22.93
2022-11-02T15:01:57.867Z,22.81
2022-11-02T15:03:32.659Z,22.73
2022-11-02T15:05:05.634Z,22.62
2022-11-02T15:06:37.726Z,22.51
2022-11-02T15:08:16.131Z,22.40
2022-11-02T15:09:51.720Z,22.30
2022-11-02T15:11:42.236Z,22.17
2022-11-02T15:13:20.210Z,21.99
2022-11-02T15:14:53.236Z,21.87
2022-11-02T15:16:25.324Z,21.76
2022-11-02T15:17:57.339Z,21.66
2022-11-02T15:19:38.314Z,21.54
2022-11-02T15:21:13.230Z,21.40
2022-11-02T15:22:46.431Z,21.28
2022-11-02T15:24:19.721Z,21.17
2022-11-02T15:25:52.541Z,21.04
2022-11-02T15:27:24.519Z,20.91
2022-11-02T15:30:38.834Z,20.65
2022-11-02T15:32:21.336Z,20.53
2022-11-02T15:33:58.429Z,20.43
2022-11-02T15:35:31.226Z,20.34
2022-11-02T15:37:05.586Z,20.22
2022-11-02T15:38:40.282Z,20.15
2022-11-02T15:40:20.087Z,20.07
2022-11-02T15:41:53.596Z,19.96
2022-11-02T15:43:40.663Z,19.91
2022-11-02T15:45:26.808Z,19.80
2022-11-02T15:47:10.783Z,19.66
2022-11-02T15:48:48.941Z,19.53
2022-11-02T15:50:26.718Z,19.41
2022-11-02T15:52:04.558Z,19.26
2022-11-02T15:53:50.468Z,19.18
2022-11-02T15:55:43.098Z,19.10
2022-11-02T15:57:15.182Z,18.98
2022-11-02T15:58:47.095Z,18.88
2022-11-02T16:00:20.240Z,18.78
2022-11-02T16:02:11.073Z,18.68
2022-11-02T16:03:46.808Z,18.56
2022-11-02T16:05:28.300Z,18.47
2022-11-02T16:07:04.267Z,18.35
2022-11-02T16:08:40.978Z,18.19
2022-11-02T16:10:23.630Z,18.04
2022-11-02T16:12:17.084Z,17.89
2022-11-02T16:14:08.093Z,17.74
2022-11-02T16:15:44.285Z,17.58
2022-11-02T16:17:20.527Z,17.43
2022-11-02T16:18:52.857Z,17.27
2022-11-02T16:20:30.419Z,17.19
2022-11-02T16:22:02.263Z,17.12
2022-11-02T16:23:38.409Z,17.03
2022-11-02T16:25:18.137Z,16.93
2022-11-02T16:26:50.254Z,16.87
2022-11-02T16:28:22.366Z,16.85
2022-11-02T16:29:54.348Z,16.76
2022-11-02T16:31:31.357Z,16.73
2022-11-02T16:33:03.429Z,16.68
2022-11-02T16:34:35.331Z,16.62
2022-11-02T16:36:08.404Z,16.58
2022-11-02T16:37:40.429Z,16.50
2022-11-02T16:39:18.271Z,16.43
2022-11-02T16:40:50.441Z,16.37
2022-11-02T16:42:22.997Z,16.33
2022-11-02T16:43:55.281Z,16.32
2022-11-02T16:45:37.018Z,16.32
2022-11-02T16:47:12.434Z,16.31
2022-11-02T16:49:04.431Z,16.29
2022-11-02T16:50:36.632Z,16.25
2022-11-02T16:52:17.491Z,16.20
2022-11-02T16:53:49.432Z,16.18
2022-11-02T16:55:39.978Z,16.15
2022-11-02T16:57:12.414Z,16.08
2022-11-02T16:58:48.085Z,16.04
2022-11-02T17:00:20.498Z,16.02
2022-11-02T17:01:52.725Z,15.97
2022-11-02T17:03:26.913Z,15.93
2022-11-02T17:05:05.899Z,15.91
2022-11-02T17:06:44.635Z,15.87
2022-11-02T17:08:35.147Z,15.85
2022-11-02T17:10:07.513Z,15.78
2022-11-02T17:11:41.164Z,15.75
2022-11-02T17:13:17.285Z,15.75
2022-11-02T17:14:53.568Z,15.72
2022-11-02T17:16:25.499Z,15.68
2022-11-02T17:18:06.383Z,15.64
2022-11-02T17:19:38.505Z,15.61
2022-11-02T17:21:13.639Z,15.54
2022-11-02T17:23:05.820Z,15.45
2022-11-02T17:24:37.693Z,15.33
2022-11-02T17:26:29.293Z,15.26
2022-11-02T17:28:02.365Z,15.20
2022-11-02T17:29:34.679Z,15.14
2022-11-02T17:31:09.639Z,15.11
2022-11-02T17:32:43.039Z,15.03
2022-11-02T17:34:16.116Z,14.95
2022-11-02T17:35:48.673Z,14.91
2022-11-02T17:37:30.104Z,14.91
2022-11-02T17:39:05.613Z,14.90
2022-11-02T17:40:37.892Z,14.89
2022-11-02T17:42:28.091Z,14.87
2022-11-02T17:44:00.060Z,14.85
2022-11-02T17:45:33.807Z,14.84
2022-11-02T17:47:12.659Z,14.80
2022-11-02T17:48:44.508Z,14.77
2022-11-02T17:50:16.453Z,14.74
2022-11-02T17:51:48.404Z,14.73
2022-11-02T17:53:20.344Z,14.70
2022-11-02T17:54:52.294Z,14.67
2022-11-02T17:56:24.211Z,14.64
2022-11-02T17:57:56.148Z,14.63
2022-11-02T17:59:28.369Z,14.65
2022-11-02T18:01:00.571Z,14.63
2022-11-02T18:02:32.711Z,14.65
2022-11-02T18:04:04.721Z,14.59
2022-11-02T18:05:39.150Z,14.53
2022-11-02T18:07:12.482Z,14.45
2022-11-02T18:09:03.029Z,14.39
2022-11-02T18:10:37.506Z,14.34
2022-11-02T18:12:13.057Z,14.28
2022-11-02T18:13:45.285Z,14.13
2022-11-02T18:15:19.741Z,14.01
2022-11-02T18:16:53.252Z,13.89
2022-11-02T18:18:25.716Z,13.85
2022-11-02T18:19:57.616Z,13.76
2022-11-02T18:21:30.133Z,13.65
2022-11-02T18:23:02.631Z,13.59
2022-11-02T18:24:34.744Z,13.54
2022-11-02T18:26:07.182Z,13.49
2022-11-02T18:27:39.547Z,13.45
2022-11-02T18:29:11.433Z,13.34
2022-11-02T18:30:44.524Z,13.21
2022-11-02T18:32:17.433Z,13.13
2022-11-02T18:33:52.802Z,13.10
2022-11-02T18:35:24.855Z,13.07
2022-11-02T18:36:56.847Z,13.08
2022-11-02T18:38:28.724Z,13.08
2022-11-02T18:40:01.006Z,13.09
2022-11-02T18:41:35.321Z,13.06
2022-11-02T18:43:07.885Z,13.06
2022-11-02T18:44:40.165Z,13.08
2022-11-02T18:46:12.013Z,13.05
2022-11-02T18:47:43.889Z,13.00
2022-11-02T18:49:15.850Z,12.96
2022-11-02T18:50:47.719Z,12.94
2022-11-02T18:52:22.224Z,12.86
2022-11-02T18:54:13.375Z,12.75
2022-11-02T18:55:45.286Z,12.66
2022-11-02T18:57:17.235Z,12.59
2022-11-02T18:58:50.414Z,12.58
2022-11-02T19:00:22.346Z,12.57
2022-11-02T19:01:54.341Z,12.51
2022-11-02T19:03:26.340Z,12.51
2022-11-02T19:04:58.213Z,12.54
2022-11-02T19:06:49.498Z,12.59
2022-11-02T19:08:40.058Z,12.61
2022-11-02T19:10:11.900Z,12.67
2022-11-02T19:11:44.147Z,12.70
2022-11-02T19:13:16.434Z,12.74
2022-11-02T19:14:49.980Z,12.75
2022-11-02T19:16:21.952Z,12.79
2022-11-02T19:17:53.796Z,12.83
2022-11-02T19:19:25.753Z,12.89
2022-11-02T19:20:59.179Z,12.91
2022-11-02T19:22:31.379Z,12.92
2022-11-02T19:24:04.527Z,12.92
2022-11-02T19:25:36.466Z,12.91
2022-11-02T19:27:11.654Z,12.89
2022-11-02T19:28:43.609Z,12.86
2022-11-02T19:30:15.771Z,12.81
2022-11-02T19:31:47.700Z,12.76
2022-11-02T19:33:19.892Z,12.73
2022-11-02T19:34:51.810Z,12.73
2022-11-02T19:36:23.726Z,12.72
2022-11-02T19:37:56.624Z,12.72
2022-11-02T19:39:28.559Z,12.72
2022-11-02T19:41:01.463Z,12.75
2022-11-02T19:42:33.384Z,12.73
2022-11-02T19:44:06.068Z,12.70
2022-11-02T19:45:37.986Z,12.68
2022-11-02T19:47:10.163Z,12.66
2022-11-02T19:48:42.235Z,12.70
2022-11-02T19:50:14.152Z,12.74
2022-11-02T19:51:46.099Z,12.76
2022-11-02T19:53:18.056Z,12.80
2022-11-02T19:54:49.905Z,12.87
2022-11-02T19:56:22.259Z,12.91
2022-11-02T19:57:54.197Z,12.96
2022-11-02T19:59:26.139Z,12.96
2022-11-02T20:00:57.994Z,12.98
2022-11-02T20:02:29.872Z,12.99
2022-11-02T20:04:02.184Z,13.03
2022-11-02T20:05:34.064Z,13.06
2022-11-02T20:07:05.951Z,13.08
2022-11-02T20:08:37.915Z,13.11
2022-11-02T20:10:09.989Z,13.16
2022-11-02T20:11:44.948Z,13.17
2022-11-02T20:13:16.806Z,13.19
2022-11-02T20:14:48.642Z,13.19
2022-11-02T20:16:20.724Z,13.21
2022-11-02T20:18:13.727Z,13.24
2022-11-02T20:19:44.517Z,13.23
2022-11-02T20:21:19.378Z,13.21
2022-11-02T20:22:51.566Z,13.19
2022-11-02T20:24:23.442Z,13.17
2022-11-02T20:25:59.006Z,13.16
2022-11-02T20:27:30.962Z,13.14
2022-11-02T20:29:03.629Z,13.15
2022-11-02T20:30:35.724Z,13.11
2022-11-02T20:32:10.482Z,13.09
2022-11-02T20:33:42.551Z,13.05
2022-11-02T20:35:14.401Z,13.04
2022-11-02T20:36:47.728Z,13.02
2022-11-02T20:38:19.661Z,13.01
2022-11-02T20:39:51.539Z,13.00
2022-11-02T20:41:24.284Z,12.97
2022-11-02T20:42:56.258Z,12.97
2022-11-02T20:44:28.194Z,12.96
2022-11-02T20:46:23.586Z,12.98
2022-11-02T20:47:52.532Z,13.00
2022-11-02T20:49:48.806Z,13.01
2022-11-02T20:51:16.850Z,13.05
2022-11-02T20:52:48.852Z,13.07
2022-11-02T20:54:21.187Z,13.10
2022-11-02T20:55:53.209Z,13.11
2022-11-02T20:57:24.991Z,13.13
2022-11-02T20:58:56.844Z,13.14
2022-11-02T21:00:28.706Z,13.10
2022-11-02T21:02:00.661Z,13.04
2022-11-02T21:05:09.144Z,12.96
2022-11-02T21:06:41.216Z,12.93
2022-11-02T21:08:13.312Z,12.93
2022-11-02T21:09:45.975Z,12.93
2022-11-02T21:11:36.466Z,12.94
2022-11-02T21:13:28.172Z,12.94
2022-11-02T21:15:00.226Z,12.93
2022-11-02T21:16:32.113Z,12.91
2022-11-02T21:18:04.092Z,12.92
2022-11-02T21:19:35.879Z,12.91
2022-11-02T21:21:11.016Z,12.92
2022-11-02T21:22:43.637Z,12.92
2022-11-02T21:24:15.630Z,12.93
2022-11-02T21:25:47.565Z,12.95
2022-11-02T21:27:21.652Z,12.98
2022-11-02T21:28:53.750Z,12.98
2022-11-02T21:30:25.863Z,12.95
2022-11-02T21:31:57.800Z,12.94
2022-11-02T21:33:30.133Z,12.93
2022-11-02T21:35:01.888Z,12.91
2022-11-02T21:36:33.741Z,12.88
2022-11-02T21:38:07.855Z,12.88
2022-11-02T21:39:39.881Z,12.89
2022-11-02T21:41:12.546Z,12.89
2022-11-02T21:42:44.456Z,12.87
2022-11-02T21:44:16.426Z,12.89
2022-11-02T21:45:52.533Z,12.88
2022-11-02T21:47:24.530Z,12.86
2022-11-02T21:48:56.313Z,12.83
2022-11-02T21:50:28.136Z,12.79
2022-11-02T21:52:00.043Z,12.76
2022-11-02T21:53:32.361Z,12.72
2022-11-02T21:55:07.362Z,12.71
2022-11-02T21:56:39.922Z,12.67
2022-11-02T21:58:11.927Z,12.62
2022-11-02T21:59:43.741Z,12.53
2022-11-02T22:01:35.276Z,12.43
2022-11-02T22:03:07.571Z,12.32
2022-11-02T22:04:39.589Z,12.26
2022-11-02T22:06:11.429Z,12.29
2022-11-02T22:08:03.170Z,12.30
2022-11-02T22:09:34.984Z,12.34
2022-11-02T22:11:07.486Z,12.36
2022-11-02T22:14:14.146Z,12.35
2022-11-02T22:15:46.035Z,12.33
2022-11-02T22:17:43.336Z,12.32
2022-11-02T22:19:13.186Z,12.30
2022-11-02T22:20:44.955Z,12.32
2022-11-02T22:22:16.832Z,12.28
2022-11-02T22:23:49.016Z,12.26
2022-11-02T22:25:20.889Z,12.26
2022-11-02T22:26:53.090Z,12.26
2022-11-02T22:28:25.077Z,12.26
2022-11-02T22:29:57.066Z,12.29
2022-11-02T22:31:30.387Z,12.28
2022-11-02T22:33:02.478Z,12.27
2022-11-02T22:34:34.443Z,12.27
2022-11-02T22:36:07.146Z,12.26
2022-11-02T22:37:57.442Z,12.26
2022-11-02T22:39:29.266Z,12.20
2022-11-02T22:41:01.538Z,12.13
2022-11-02T22:42:38.323Z,12.07
2022-11-02T22:44:14.597Z,12.03
2022-11-02T22:45:46.568Z,12.02
2022-11-02T22:47:18.403Z,11.98
2022-11-02T22:48:53.949Z,11.97
2022-11-02T22:50:27.859Z,11.96
2022-11-02T22:51:59.916Z,11.97
2022-11-02T22:53:31.838Z,11.91
2022-11-02T22:55:04.451Z,11.90
2022-11-02T22:56:36.345Z,11.87